sensor_id;sensor_type;location;lat;lon;timestamp;pressure;altitude;pressure_sealevel;temperature;humidity
39491;BME280;25175;50.140;18.990;2023-08-06T00:00:50;97234.50;;;18.71;76.92
39491;BME280;25175;50.140;18.990;2023-08-06T00:03:55;97202.84;;;18.75;76.77
39491;BME280;25175;50.140;18.990;2023-08-06T00:07:02;97199.09;;;18.76;76.85
39491;BME280;25175;50.140;18.990;2023-08-06T00:10:07;97186.09;;;18.74;76.62
39491;BME280;25175;50.140;18.990;2023-08-06T00:13:13;97171.25;;;18.73;76.74
39491;BME280;25175;50.140;18.990;2023-08-06T00:16:20;97142.00;;;18.73;76.84
39491;BME280;25175;50.140;18.990;2023-08-06T00:19:25;97127.63;;;18.74;77.06
39491;BME280;25175;50.140;18.990;2023-08-06T00:22:30;97111.78;;;18.69;76.97
39491;BME280;25175;50.140;18.990;2023-08-06T00:25:39;97092.53;;;18.77;76.43
39491;BME280;25175;50.140;18.990;2023-08-06T00:28:43;97042.59;;;18.74;76.68
39491;BME280;25175;50.140;18.990;2023-08-06T00:31:51;97012.88;;;18.72;76.90
39491;BME280;25175;50.140;18.990;2023-08-06T00:34:56;96995.66;;;18.70;77.01
39491;BME280;25175;50.140;18.990;2023-08-06T00:38:01;97017.78;;;18.65;77.16
39491;BME280;25175;50.140;18.990;2023-08-06T00:41:06;97072.63;;;18.75;77.01
39491;BME280;25175;50.140;18.990;2023-08-06T00:44:12;97089.19;;;18.85;76.71
39491;BME280;25175;50.140;18.990;2023-08-06T00:47:19;96920.97;;;18.04;75.97
39491;BME280;25175;50.140;18.990;2023-08-06T00:50:24;97065.56;;;18.97;76.08
39491;BME280;25175;50.140;18.990;2023-08-06T00:53:29;97036.22;;;19.02;75.66
39491;BME280;25175;50.140;18.990;2023-08-06T00:56:37;96996.81;;;19.04;75.68
39491;BME280;25175;50.140;18.990;2023-08-06T00:59:42;96988.56;;;19.06;75.58
39491;BME280;25175;50.140;18.990;2023-08-06T01:02:51;96995.94;;;19.09;75.51
39491;BME280;25175;50.140;18.990;2023-08-06T01:05:56;96982.94;;;19.07;75.28
39491;BME280;25175;50.140;18.990;2023-08-06T01:09:07;97016.22;;;19.18;75.15
39491;BME280;25175;50.140;18.990;2023-08-06T01:12:33;97034.53;;;19.20;74.38
39491;BME280;25175;50.140;18.990;2023-08-06T01:15:50;97030.41;;;19.27;74.69
39491;BME280;25175;50.140;18.990;2023-08-06T01:19:00;97026.03;;;19.31;74.59
39491;BME280;25175;50.140;18.990;2023-08-06T01:22:08;97013.34;;;19.28;74.38
39491;BME280;25175;50.140;18.990;2023-08-06T01:25:16;97009.66;;;19.38;73.94
39491;BME280;25175;50.140;18.990;2023-08-06T01:28:31;96977.75;;;19.38;74.00
39491;BME280;25175;50.140;18.990;2023-08-06T01:31:46;96976.47;;;19.35;74.21
39491;BME280;25175;50.140;18.990;2023-08-06T01:34:54;96965.03;;;19.35;74.07
39491;BME280;25175;50.140;18.990;2023-08-06T01:38:03;96921.47;;;19.22;74.19
39491;BME280;25175;50.140;18.990;2023-08-06T01:41:08;96956.16;;;19.39;74.41
39491;BME280;25175;50.140;18.990;2023-08-06T01:44:13;96941.59;;;19.37;73.94
39491;BME280;25175;50.140;18.990;2023-08-06T01:47:19;96951.72;;;19.48;73.54
39491;BME280;25175;50.140;18.990;2023-08-06T01:50:24;96951.94;;;19.52;73.22
39491;BME280;25175;50.140;18.990;2023-08-06T01:53:32;96961.94;;;19.55;73.23
39491;BME280;25175;50.140;18.990;2023-08-06T01:56:37;96971.38;;;19.61;72.95
39491;BME280;25175;50.140;18.990;2023-08-06T01:59:42;96957.84;;;19.49;72.72
39491;BME280;25175;50.140;18.990;2023-08-06T02:02:47;96973.94;;;19.66;72.57
39491;BME280;25175;50.140;18.990;2023-08-06T02:05:52;96970.00;;;19.63;72.69
39491;BME280;25175;50.140;18.990;2023-08-06T02:08:59;96973.81;;;19.71;72.38
39491;BME280;25175;50.140;18.990;2023-08-06T02:12:06;96970.56;;;19.74;72.23
39491;BME280;25175;50.140;18.990;2023-08-06T02:15:11;96958.00;;;19.74;72.38
39491;BME280;25175;50.140;18.990;2023-08-06T02:18:16;96948.63;;;19.77;72.10
39491;BME280;25175;50.140;18.990;2023-08-06T02:21:21;96954.25;;;19.75;72.05
39491;BME280;25175;50.140;18.990;2023-08-06T02:24:28;96944.06;;;19.69;71.99
39491;BME280;25175;50.140;18.990;2023-08-06T02:27:34;96948.16;;;19.75;72.04
39491;BME280;25175;50.140;18.990;2023-08-06T02:30:39;96935.28;;;19.68;72.30
39491;BME280;25175;50.140;18.990;2023-08-06T02:33:53;96937.03;;;19.73;72.13
39491;BME280;25175;50.140;18.990;2023-08-06T02:37:00;96924.34;;;19.70;72.66
39491;BME280;25175;50.140;18.990;2023-08-06T02:40:08;96925.44;;;19.69;72.50
39491;BME280;25175;50.140;18.990;2023-08-06T02:43:14;96916.81;;;19.72;72.40
39491;BME280;25175;50.140;18.990;2023-08-06T02:46:18;96915.72;;;19.73;72.28
39491;BME280;25175;50.140;18.990;2023-08-06T02:49:25;96917.16;;;19.79;71.98
39491;BME280;25175;50.140;18.990;2023-08-06T02:52:30;96916.88;;;19.80;71.83
39491;BME280;25175;50.140;18.990;2023-08-06T02:55:45;96911.38;;;19.77;71.92
39491;BME280;25175;50.140;18.990;2023-08-06T02:58:55;96906.34;;;19.75;72.15
39491;BME280;25175;50.140;18.990;2023-08-06T03:02:16;96888.94;;;19.69;71.95
39491;BME280;25175;50.140;18.990;2023-08-06T03:05:30;96903.22;;;19.73;72.36
39491;BME280;25175;50.140;18.990;2023-08-06T03:08:36;96920.47;;;19.76;72.40
39491;BME280;25175;50.140;18.990;2023-08-06T03:11:44;96842.50;;;19.31;72.30
39491;BME280;25175;50.140;18.990;2023-08-06T03:14:51;96886.28;;;19.69;72.49
39491;BME280;25175;50.140;18.990;2023-08-06T03:17:56;96893.66;;;19.72;72.27
39491;BME280;25175;50.140;18.990;2023-08-06T03:21:01;96920.53;;;19.62;72.46
39491;BME280;25175;50.140;18.990;2023-08-06T03:24:07;96910.69;;;19.63;72.82
39491;BME280;25175;50.140;18.990;2023-08-06T03:27:17;96910.69;;;19.63;72.90
39491;BME280;25175;50.140;18.990;2023-08-06T03:30:23;96904.09;;;19.60;72.90
39491;BME280;25175;50.140;18.990;2023-08-06T03:33:30;96890.78;;;19.60;73.18
39491;BME280;25175;50.140;18.990;2023-08-06T03:36:38;96885.75;;;19.59;73.21
39491;BME280;25175;50.140;18.990;2023-08-06T03:39:43;96876.03;;;19.54;73.19
39491;BME280;25175;50.140;18.990;2023-08-06T03:42:50;96873.97;;;19.51;73.40
39491;BME280;25175;50.140;18.990;2023-08-06T03:45:55;96879.59;;;19.50;73.44
39491;BME280;25175;50.140;18.990;2023-08-06T03:49:00;96867.28;;;19.40;73.68
39491;BME280;25175;50.140;18.990;2023-08-06T03:52:06;96874.69;;;19.43;74.10
39491;BME280;25175;50.140;18.990;2023-08-06T03:55:11;96882.78;;;19.38;74.21
39491;BME280;25175;50.140;18.990;2023-08-06T03:58:19;96672.22;;;18.04;74.39
39491;BME280;25175;50.140;18.990;2023-08-06T04:01:24;96860.81;;;19.33;74.64
39491;BME280;25175;50.140;18.990;2023-08-06T04:04:29;96874.31;;;19.36;74.64
39491;BME280;25175;50.140;18.990;2023-08-06T04:07:34;96875.09;;;19.37;74.74
39491;BME280;25175;50.140;18.990;2023-08-06T04:10:40;96620.19;;;17.68;74.67
39491;BME280;25175;50.140;18.990;2023-08-06T04:13:47;96862.44;;;19.20;74.76
39491;BME280;25175;50.140;18.990;2023-08-06T04:16:53;96865.91;;;19.21;74.79
39491;BME280;25175;50.140;18.990;2023-08-06T04:19:57;96866.09;;;19.24;75.09
39491;BME280;25175;50.140;18.990;2023-08-06T04:23:06;96852.31;;;19.22;75.06
39491;BME280;25175;50.140;18.990;2023-08-06T04:26:11;96842.78;;;19.21;75.01
39491;BME280;25175;50.140;18.990;2023-08-06T04:29:19;96840.53;;;19.15;74.82
39491;BME280;25175;50.140;18.990;2023-08-06T04:32:25;96831.09;;;19.09;75.29
39491;BME280;25175;50.140;18.990;2023-08-06T04:35:30;96811.81;;;19.03;75.37
39491;BME280;25175;50.140;18.990;2023-08-06T04:38:35;96812.78;;;19.07;75.28
39491;BME280;25175;50.140;18.990;2023-08-06T04:41:43;96824.56;;;19.15;75.18
39491;BME280;25175;50.140;18.990;2023-08-06T04:44:51;96822.22;;;19.13;74.86
39491;BME280;25175;50.140;18.990;2023-08-06T04:47:56;96823.00;;;19.14;74.85
39491;BME280;25175;50.140;18.990;2023-08-06T04:51:01;96823.78;;;19.14;74.94
39491;BME280;25175;50.140;18.990;2023-08-06T04:54:06;96823.78;;;19.14;74.82
39491;BME280;25175;50.140;18.990;2023-08-06T04:57:11;96529.72;;;17.34;74.60
39491;BME280;25175;50.140;18.990;2023-08-06T05:00:19;96808.44;;;19.11;74.35
39491;BME280;25175;50.140;18.990;2023-08-06T05:03:24;96813.53;;;19.21;74.43
39491;BME280;25175;50.140;18.990;2023-08-06T05:06:29;96810.34;;;19.19;74.27
39491;BME280;25175;50.140;18.990;2023-08-06T05:09:33;96805.22;;;19.23;74.44
39491;BME280;25175;50.140;18.990;2023-08-06T05:12:39;96803.78;;;19.17;74.36
39491;BME280;25175;50.140;18.990;2023-08-06T05:15:46;96795.19;;;19.20;74.28
39491;BME280;25175;50.140;18.990;2023-08-06T05:18:52;96789.72;;;19.16;74.22
39491;BME280;25175;50.140;18.990;2023-08-06T05:21:56;96789.19;;;19.14;74.36
39491;BME280;25175;50.140;18.990;2023-08-06T05:25:03;96781.22;;;19.14;74.32
39491;BME280;25175;50.140;18.990;2023-08-06T05:28:08;96783.88;;;19.14;74.44
39491;BME280;25175;50.140;18.990;2023-08-06T05:31:17;96603.06;;;17.87;72.89
39491;BME280;25175;50.140;18.990;2023-08-06T05:34:21;96802.69;;;18.96;71.83
39491;BME280;25175;50.140;18.990;2023-08-06T05:37:26;96794.78;;;18.69;71.12
39491;BME280;25175;50.140;18.990;2023-08-06T05:40:33;96797.88;;;18.62;71.42
39491;BME280;25175;50.140;18.990;2023-08-06T05:43:38;96785.72;;;18.48;71.60
39491;BME280;25175;50.140;18.990;2023-08-06T05:46:46;96763.16;;;18.23;71.30
39491;BME280;25175;50.140;18.990;2023-08-06T05:49:51;96762.25;;;18.14;71.37
39491;BME280;25175;50.140;18.990;2023-08-06T05:52:55;96758.63;;;18.10;71.96
39491;BME280;25175;50.140;18.990;2023-08-06T05:56:01;96752.72;;;18.00;72.03
39491;BME280;25175;50.140;18.990;2023-08-06T05:59:05;96751.06;;;17.90;72.54
39491;BME280;25175;50.140;18.990;2023-08-06T06:02:13;96773.47;;;17.84;72.33
39491;BME280;25175;50.140;18.990;2023-08-06T06:05:19;96750.09;;;17.73;72.89
39491;BME280;25175;50.140;18.990;2023-08-06T06:08:25;96752.84;;;17.68;71.83
39491;BME280;25175;50.140;18.990;2023-08-06T06:11:29;96715.69;;;17.41;71.47
39491;BME280;25175;50.140;18.990;2023-08-06T06:14:34;96739.66;;;17.49;72.53
39491;BME280;25175;50.140;18.990;2023-08-06T06:17:41;96738.47;;;17.42;72.25
39491;BME280;25175;50.140;18.990;2023-08-06T06:20:47;96728.84;;;17.32;72.52
39491;BME280;25175;50.140;18.990;2023-08-06T06:23:51;96720.34;;;17.03;72.17
39491;BME280;25175;50.140;18.990;2023-08-06T06:26:56;96747.63;;;17.17;72.43
39491;BME280;25175;50.140;18.990;2023-08-06T06:30:01;96756.66;;;17.16;72.83
39491;BME280;25175;50.140;18.990;2023-08-06T06:33:09;96763.34;;;17.14;72.52
39491;BME280;25175;50.140;18.990;2023-08-06T06:36:14;96747.22;;;17.10;72.95
39491;BME280;25175;50.140;18.990;2023-08-06T06:39:21;96710.91;;;16.97;72.95
39491;BME280;25175;50.140;18.990;2023-08-06T06:42:25;96703.69;;;16.84;72.96
39491;BME280;25175;50.140;18.990;2023-08-06T06:45:35;96732.53;;;16.86;73.38
39491;BME280;25175;50.140;18.990;2023-08-06T06:48:42;96729.97;;;16.81;73.46
39491;BME280;25175;50.140;18.990;2023-08-06T06:51:47;96724.00;;;16.75;73.71
39491;BME280;25175;50.140;18.990;2023-08-06T06:54:52;96710.81;;;16.70;73.61
39491;BME280;25175;50.140;18.990;2023-08-06T06:57:57;96705.25;;;16.72;73.72
39491;BME280;25175;50.140;18.990;2023-08-06T07:01:02;96701.59;;;16.68;73.65
39491;BME280;25175;50.140;18.990;2023-08-06T07:04:10;96712.75;;;16.65;73.16
39491;BME280;25175;50.140;18.990;2023-08-06T07:07:14;96712.63;;;16.56;73.12
39491;BME280;25175;50.140;18.990;2023-08-06T07:10:19;96699.53;;;16.46;72.86
39491;BME280;25175;50.140;18.990;2023-08-06T07:13:24;96705.75;;;16.37;73.18
39491;BME280;25175;50.140;18.990;2023-08-06T07:16:29;96739.38;;;16.36;73.38
39491;BME280;25175;50.140;18.990;2023-08-06T07:19:37;96738.66;;;16.12;73.63
39491;BME280;25175;50.140;18.990;2023-08-06T07:22:43;96783.44;;;16.27;73.84
39491;BME280;25175;50.140;18.990;2023-08-06T07:25:48;96792.88;;;16.33;74.30
39491;BME280;25175;50.140;18.990;2023-08-06T07:28:53;96758.25;;;16.30;73.94
39491;BME280;25175;50.140;18.990;2023-08-06T07:31:58;96724.06;;;16.33;74.41
39491;BME280;25175;50.140;18.990;2023-08-06T07:35:06;96734.38;;;16.35;73.77
39491;BME280;25175;50.140;18.990;2023-08-06T07:38:13;96731.31;;;16.28;73.40
39491;BME280;25175;50.140;18.990;2023-08-06T07:41:18;96727.44;;;16.20;73.46
39491;BME280;25175;50.140;18.990;2023-08-06T07:44:23;96720.72;;;16.09;73.33
39491;BME280;25175;50.140;18.990;2023-08-06T07:47:28;96743.19;;;16.12;73.39
39491;BME280;25175;50.140;18.990;2023-08-06T07:50:36;96765.47;;;16.06;73.38
39491;BME280;25175;50.140;18.990;2023-08-06T07:53:41;96774.56;;;16.00;73.33
39491;BME280;25175;50.140;18.990;2023-08-06T07:56:45;96756.88;;;15.95;73.21
39491;BME280;25175;50.140;18.990;2023-08-06T07:59:51;96742.06;;;15.94;73.17
39491;BME280;25175;50.140;18.990;2023-08-06T08:02:57;96727.56;;;15.92;73.60
39491;BME280;25175;50.140;18.990;2023-08-06T08:06:05;96721.78;;;15.90;73.40
39491;BME280;25175;50.140;18.990;2023-08-06T08:09:10;96725.03;;;15.82;73.50
39491;BME280;25175;50.140;18.990;2023-08-06T08:12:15;96755.09;;;15.91;73.73
39491;BME280;25175;50.140;18.990;2023-08-06T08:15:20;96765.88;;;15.94;73.73
39491;BME280;25175;50.140;18.990;2023-08-06T08:18:25;96769.53;;;15.98;73.50
39491;BME280;25175;50.140;18.990;2023-08-06T08:21:35;96762.63;;;16.02;73.21
39491;BME280;25175;50.140;18.990;2023-08-06T08:24:40;96756.97;;;16.09;73.10
39491;BME280;25175;50.140;18.990;2023-08-06T08:27:45;96755.59;;;16.11;73.28
39491;BME280;25175;50.140;18.990;2023-08-06T08:30:50;96733.66;;;16.11;73.15
39491;BME280;25175;50.140;18.990;2023-08-06T08:33:54;96709.72;;;16.02;73.00
39491;BME280;25175;50.140;18.990;2023-08-06T08:37:03;96723.34;;;15.91;72.89
39491;BME280;25175;50.140;18.990;2023-08-06T08:40:09;96728.16;;;16.08;73.13
39491;BME280;25175;50.140;18.990;2023-08-06T08:43:15;96732.38;;;16.08;72.90
39491;BME280;25175;50.140;18.990;2023-08-06T08:46:20;96749.88;;;16.04;73.04
39491;BME280;25175;50.140;18.990;2023-08-06T08:49:27;96749.66;;;16.01;73.13
39491;BME280;25175;50.140;18.990;2023-08-06T08:52:38;96761.03;;;16.01;72.84
39491;BME280;25175;50.140;18.990;2023-08-06T08:55:48;96749.94;;;15.99;73.17
39491;BME280;25175;50.140;18.990;2023-08-06T08:58:53;96748.66;;;15.97;73.49
39491;BME280;25175;50.140;18.990;2023-08-06T09:02:00;96736.50;;;15.96;73.17
39491;BME280;25175;50.140;18.990;2023-08-06T09:05:07;96740.56;;;15.88;72.71
39491;BME280;25175;50.140;18.990;2023-08-06T09:08:19;96745.16;;;15.83;73.05
39491;BME280;25175;50.140;18.990;2023-08-06T09:11:29;96751.25;;;15.78;72.57
39491;BME280;25175;50.140;18.990;2023-08-06T09:14:42;96740.97;;;15.77;72.81
39491;BME280;25175;50.140;18.990;2023-08-06T09:17:46;96699.97;;;15.56;72.84
39491;BME280;25175;50.140;18.990;2023-08-06T09:20:52;96733.81;;;15.77;72.80
39491;BME280;25175;50.140;18.990;2023-08-06T09:24:00;96718.06;;;15.68;73.34
39491;BME280;25175;50.140;18.990;2023-08-06T09:27:05;96725.94;;;15.73;73.08
39491;BME280;25175;50.140;18.990;2023-08-06T09:30:29;96715.97;;;15.70;72.78
39491;BME280;25175;50.140;18.990;2023-08-06T09:33:36;96725.19;;;15.72;73.33
39491;BME280;25175;50.140;18.990;2023-08-06T09:36:42;96744.19;;;15.74;72.70
39491;BME280;25175;50.140;18.990;2023-08-06T09:39:51;96749.75;;;15.73;73.47
39491;BME280;25175;50.140;18.990;2023-08-06T09:42:56;96599.88;;;14.79;73.14
39491;BME280;25175;50.140;18.990;2023-08-06T09:46:11;96746.56;;;15.76;72.55
39491;BME280;25175;50.140;18.990;2023-08-06T09:49:19;96756.38;;;15.70;72.44
39491;BME280;25175;50.140;18.990;2023-08-06T09:52:25;96751.31;;;15.73;71.93
39491;BME280;25175;50.140;18.990;2023-08-06T09:55:33;96768.25;;;15.73;72.81
39491;BME280;25175;50.140;18.990;2023-08-06T09:58:39;96767.50;;;15.72;72.70
39491;BME280;25175;50.140;18.990;2023-08-06T10:01:45;96760.84;;;15.75;72.65
39491;BME280;25175;50.140;18.990;2023-08-06T10:04:52;96759.84;;;15.71;72.95
39491;BME280;25175;50.140;18.990;2023-08-06T10:08:02;96762.97;;;15.73;72.86
39491;BME280;25175;50.140;18.990;2023-08-06T10:11:15;96746.41;;;15.62;72.93
39491;BME280;25175;50.140;18.990;2023-08-06T10:14:25;96772.47;;;15.73;72.73
39491;BME280;25175;50.140;18.990;2023-08-06T10:17:35;96765.41;;;15.64;72.32
39491;BME280;25175;50.140;18.990;2023-08-06T10:20:41;96774.41;;;15.68;72.39
39491;BME280;25175;50.140;18.990;2023-08-06T10:23:54;96785.25;;;15.67;72.50
39491;BME280;25175;50.140;18.990;2023-08-06T10:27:01;96790.00;;;15.64;72.50
39491;BME280;25175;50.140;18.990;2023-08-06T10:30:22;96780.03;;;15.56;72.72
39491;BME280;25175;50.140;18.990;2023-08-06T10:33:40;96796.94;;;15.60;72.61
39491;BME280;25175;50.140;18.990;2023-08-06T10:36:48;96807.22;;;15.62;72.41
39491;BME280;25175;50.140;18.990;2023-08-06T10:39:52;96779.31;;;15.51;72.37
39491;BME280;25175;50.140;18.990;2023-08-06T10:43:01;96789.31;;;15.54;73.05
39491;BME280;25175;50.140;18.990;2023-08-06T10:46:10;96753.69;;;15.23;73.36
39491;BME280;25175;50.140;18.990;2023-08-06T10:49:17;96668.81;;;14.73;73.91
39491;BME280;25175;50.140;18.990;2023-08-06T10:52:23;96774.63;;;15.43;74.22
39491;BME280;25175;50.140;18.990;2023-08-06T10:55:29;96796.16;;;15.55;73.92
39491;BME280;25175;50.140;18.990;2023-08-06T10:58:36;96795.41;;;15.54;73.02
39491;BME280;25175;50.140;18.990;2023-08-06T11:01:42;96804.94;;;15.50;73.41
39491;BME280;25175;50.140;18.990;2023-08-06T11:04:48;96806.25;;;15.53;73.94
39491;BME280;25175;50.140;18.990;2023-08-06T11:07:53;96796.78;;;15.47;74.06
39491;BME280;25175;50.140;18.990;2023-08-06T11:11:07;96805.22;;;15.49;74.03
39491;BME280;25175;50.140;18.990;2023-08-06T11:14:18;96826.56;;;15.57;73.79
39491;BME280;25175;50.140;18.990;2023-08-06T11:17:22;96824.25;;;15.51;73.27
39491;BME280;25175;50.140;18.990;2023-08-06T11:20:28;96817.41;;;15.50;74.00
39491;BME280;25175;50.140;18.990;2023-08-06T11:23:34;96756.97;;;15.10;73.48
39491;BME280;25175;50.140;18.990;2023-08-06T11:26:40;96811.09;;;15.46;73.73
39491;BME280;25175;50.140;18.990;2023-08-06T11:29:48;96817.72;;;15.43;74.60
39491;BME280;25175;50.140;18.990;2023-08-06T11:32:54;96799.81;;;15.35;74.88
39491;BME280;25175;50.140;18.990;2023-08-06T11:35:59;96775.59;;;15.23;74.66
39491;BME280;25175;50.140;18.990;2023-08-06T11:39:06;96821.25;;;15.57;74.65
39491;BME280;25175;50.140;18.990;2023-08-06T11:42:12;96814.63;;;15.60;74.49
39491;BME280;25175;50.140;18.990;2023-08-06T11:45:24;96824.16;;;15.61;74.21
39491;BME280;25175;50.140;18.990;2023-08-06T11:48:29;96828.44;;;15.57;73.31
39491;BME280;25175;50.140;18.990;2023-08-06T11:51:34;96832.13;;;15.56;74.48
39491;BME280;25175;50.140;18.990;2023-08-06T11:54:38;96838.19;;;15.56;74.13
39491;BME280;25175;50.140;18.990;2023-08-06T11:57:44;96844.06;;;15.53;74.54
39491;BME280;25175;50.140;18.990;2023-08-06T12:00:52;96835.16;;;15.44;75.06
39491;BME280;25175;50.140;18.990;2023-08-06T12:04:00;96853.53;;;15.59;75.58
39491;BME280;25175;50.140;18.990;2023-08-06T12:07:05;96857.72;;;15.60;75.28
39491;BME280;25175;50.140;18.990;2023-08-06T12:10:11;96863.53;;;15.62;75.29
39491;BME280;25175;50.140;18.990;2023-08-06T12:13:16;96856.44;;;15.58;74.65
39491;BME280;25175;50.140;18.990;2023-08-06T12:16:24;96868.09;;;15.57;74.48
39491;BME280;25175;50.140;18.990;2023-08-06T12:19:29;96836.22;;;15.43;75.15
39491;BME280;25175;50.140;18.990;2023-08-06T12:22:35;96854.59;;;15.58;74.62
39491;BME280;25175;50.140;18.990;2023-08-06T12:25:41;96831.22;;;15.42;74.56
39491;BME280;25175;50.140;18.990;2023-08-06T12:28:46;96869.88;;;15.67;75.12
39491;BME280;25175;50.140;18.990;2023-08-06T12:31:53;96878.28;;;15.68;75.29
39491;BME280;25175;50.140;18.990;2023-08-06T12:34:59;96879.91;;;15.70;75.16
39491;BME280;25175;50.140;18.990;2023-08-06T12:38:04;96874.09;;;15.68;74.67
39491;BME280;25175;50.140;18.990;2023-08-06T12:41:09;96825.00;;;15.28;74.83
39491;BME280;25175;50.140;18.990;2023-08-06T12:44:14;96874.31;;;15.66;74.97
39491;BME280;25175;50.140;18.990;2023-08-06T12:47:22;96867.47;;;15.65;75.09
39491;BME280;25175;50.140;18.990;2023-08-06T12:50:26;96865.63;;;15.65;73.93
39491;BME280;25175;50.140;18.990;2023-08-06T12:53:32;96857.44;;;15.67;74.95
39491;BME280;25175;50.140;18.990;2023-08-06T12:56:36;96867.47;;;15.65;74.86
39491;BME280;25175;50.140;18.990;2023-08-06T12:59:42;96859.34;;;15.56;75.25
39491;BME280;25175;50.140;18.990;2023-08-06T13:02:49;96860.91;;;15.57;75.26
39491;BME280;25175;50.140;18.990;2023-08-06T13:05:54;96867.22;;;15.67;74.96
39491;BME280;25175;50.140;18.990;2023-08-06T13:08:59;96858.22;;;15.62;75.12
39491;BME280;25175;50.140;18.990;2023-08-06T13:12:05;96870.31;;;15.73;75.26
39491;BME280;25175;50.140;18.990;2023-08-06T13:15:10;96867.91;;;15.77;75.11
39491;BME280;25175;50.140;18.990;2023-08-06T13:18:19;96877.66;;;15.82;75.58
39491;BME280;25175;50.140;18.990;2023-08-06T13:21:23;96888.47;;;15.85;75.37
39491;BME280;25175;50.140;18.990;2023-08-06T13:24:29;96890.03;;;15.86;74.81
39491;BME280;25175;50.140;18.990;2023-08-06T13:27:34;96851.47;;;15.51;74.51
39491;BME280;25175;50.140;18.990;2023-08-06T13:30:40;96898.78;;;15.87;75.08
39491;BME280;25175;50.140;18.990;2023-08-06T13:33:48;96902.19;;;15.87;74.68
39491;BME280;25175;50.140;18.990;2023-08-06T13:36:53;96912.50;;;15.88;75.23
39491;BME280;25175;50.140;18.990;2023-08-06T13:39:59;96867.78;;;15.63;73.97
39491;BME280;25175;50.140;18.990;2023-08-06T13:43:06;96910.88;;;15.93;74.47
39491;BME280;25175;50.140;18.990;2023-08-06T13:46:11;96914.59;;;15.92;73.90
39491;BME280;25175;50.140;18.990;2023-08-06T13:49:21;96919.88;;;15.92;74.07
39491;BME280;25175;50.140;18.990;2023-08-06T13:52:26;96925.72;;;15.88;72.82
39491;BME280;25175;50.140;18.990;2023-08-06T13:55:31;96708.63;;;14.48;73.33
39491;BME280;25175;50.140;18.990;2023-08-06T13:58:36;96912.63;;;15.73;73.51
39491;BME280;25175;50.140;18.990;2023-08-06T14:01:41;96911.81;;;15.78;72.99
39491;BME280;25175;50.140;18.990;2023-08-06T14:04:49;96913.94;;;15.76;73.84
39491;BME280;25175;50.140;18.990;2023-08-06T14:07:54;96920.03;;;15.77;73.56
39491;BME280;25175;50.140;18.990;2023-08-06T14:10:59;96906.78;;;15.77;73.64
39491;BME280;25175;50.140;18.990;2023-08-06T14:14:04;96925.03;;;15.78;74.13
39491;BME280;25175;50.140;18.990;2023-08-06T14:17:08;96937.97;;;15.79;73.75
39491;BME280;25175;50.140;18.990;2023-08-06T14:20:16;96953.28;;;15.83;74.34
39491;BME280;25175;50.140;18.990;2023-08-06T14:23:21;96950.09;;;15.86;74.29
39491;BME280;25175;50.140;18.990;2023-08-06T14:26:26;96718.75;;;14.36;73.57
39491;BME280;25175;50.140;18.990;2023-08-06T14:29:31;96965.41;;;15.88;73.37
39491;BME280;25175;50.140;18.990;2023-08-06T14:32:36;96963.81;;;15.88;73.83
39491;BME280;25175;50.140;18.990;2023-08-06T14:35:43;96967.59;;;15.82;73.18
39491;BME280;25175;50.140;18.990;2023-08-06T14:38:49;96973.94;;;15.81;73.30
39491;BME280;25175;50.140;18.990;2023-08-06T14:41:53;96976.34;;;15.77;73.57
39491;BME280;25175;50.140;18.990;2023-08-06T14:44:58;96975.06;;;15.75;73.09
39491;BME280;25175;50.140;18.990;2023-08-06T14:48:03;96981.97;;;15.71;73.67
39491;BME280;25175;50.140;18.990;2023-08-06T14:51:11;96984.06;;;15.68;73.92
39491;BME280;25175;50.140;18.990;2023-08-06T14:54:16;96979.31;;;15.71;74.10
39491;BME280;25175;50.140;18.990;2023-08-06T14:57:21;96986.44;;;15.70;73.51
39491;BME280;25175;50.140;18.990;2023-08-06T15:00:29;96988.56;;;15.73;73.62
39491;BME280;25175;50.140;18.990;2023-08-06T15:03:34;96993.03;;;15.73;73.94
39491;BME280;25175;50.140;18.990;2023-08-06T15:06:41;96991.97;;;15.73;74.51
39491;BME280;25175;50.140;18.990;2023-08-06T15:09:47;96984.56;;;15.76;74.20
39491;BME280;25175;50.140;18.990;2023-08-06T15:12:51;96981.44;;;15.68;73.47
39491;BME280;25175;50.140;18.990;2023-08-06T15:15:57;96978.59;;;15.55;73.50
39491;BME280;25175;50.140;18.990;2023-08-06T15:19:01;96974.72;;;15.48;73.52
39491;BME280;25175;50.140;18.990;2023-08-06T15:22:09;96970.97;;;15.53;74.54
39491;BME280;25175;50.140;18.990;2023-08-06T15:25:15;96975.44;;;15.53;73.83
39491;BME280;25175;50.140;18.990;2023-08-06T15:28:20;96982.06;;;15.50;73.33
39491;BME280;25175;50.140;18.990;2023-08-06T15:31:35;96965.88;;;15.18;73.73
39491;BME280;25175;50.140;18.990;2023-08-06T15:34:46;96996.63;;;15.48;73.88
39491;BME280;25175;50.140;18.990;2023-08-06T15:37:55;97005.38;;;15.43;73.61
39491;BME280;25175;50.140;18.990;2023-08-06T15:41:02;97014.03;;;15.54;73.72
39491;BME280;25175;50.140;18.990;2023-08-06T15:44:07;97025.41;;;15.54;72.30
39491;BME280;25175;50.140;18.990;2023-08-06T15:47:12;97026.19;;;15.55;72.82
39491;BME280;25175;50.140;18.990;2023-08-06T15:50:17;97025.41;;;15.54;73.00
39491;BME280;25175;50.140;18.990;2023-08-06T15:53:25;97017.53;;;15.44;73.12
39491;BME280;25175;50.140;18.990;2023-08-06T15:56:30;97046.75;;;15.63;73.29
39491;BME280;25175;50.140;18.990;2023-08-06T15:59:35;97045.19;;;15.62;72.22
39491;BME280;25175;50.140;18.990;2023-08-06T16:02:42;96850.16;;;14.34;72.00
39491;BME280;25175;50.140;18.990;2023-08-06T16:05:49;97056.88;;;15.56;71.86
39491;BME280;25175;50.140;18.990;2023-08-06T16:08:56;97069.28;;;15.55;71.20
39491;BME280;25175;50.140;18.990;2023-08-06T16:12:01;97089.38;;;15.51;72.42
39491;BME280;25175;50.140;18.990;2023-08-06T16:15:07;97089.69;;;15.50;71.53